Time;durP1;ratioP1;P1;durP2;ratioP2;P2;SDS_P1;SDS_P2;PMS_P1;PMS_P2;Temp;Humidity;BMP_temperature;BMP_pressure;BME280_temperature;BME280_humidity;BME280_pressure;Samples;Min_cycle;Max_cycle;Signal;HPM_P1;HPM_P2
2022/09/03 00:02:16;;;;;;;0.90;0.70;;;12.50;99.90;;;;;;5102518;28;20466;-80
2022/09/03 00:04:56;;;;;;;0.60;0.50;;;12.50;99.90;;;;;;5101778;27;20524;-79
2022/09/03 00:07:32;;;;;;;0.60;0.60;;;12.40;99.90;;;;;;5104085;28;20470;-79
2022/09/03 00:10:07;;;;;;;0.50;0.50;;;12.40;99.90;;;;;;5101351;27;20460;-79
2022/09/03 00:12:40;;;;;;;1.27;0.50;;;12.30;99.90;;;;;;5106748;27;20564;-79
2022/09/03 00:15:10;;;;;;;0.50;0.50;;;12.40;99.90;;;;;;5103543;27;20554;-79
2022/09/03 00:17:40;;;;;;;1.00;0.60;;;12.40;99.90;;;;;;5099456;27;20473;-79
2022/09/03 00:20:15;;;;;;;1.43;0.70;;;12.40;99.90;;;;;;5105621;27;20452;-80
2022/09/03 00:22:45;;;;;;;0.60;0.50;;;12.40;99.90;;;;;;5103215;27;20476;-80
2022/09/03 00:25:17;;;;;;;2.50;0.50;;;12.30;99.90;;;;;;5099351;27;20995;-79
2022/09/03 00:27:49;;;;;;;1.23;0.60;;;12.40;99.90;;;;;;5103197;27;20535;-80
2022/09/03 00:30:17;;;;;;;1.30;0.60;;;12.30;99.90;;;;;;5105116;27;20458;-81
2022/09/03 00:32:47;;;;;;;0.60;0.60;;;12.30;99.90;;;;;;5105501;27;21059;-79
2022/09/03 00:35:20;;;;;;;0.63;0.63;;;12.30;99.90;;;;;;5102130;28;20464;-79
2022/09/03 00:37:48;;;;;;;0.67;0.63;;;12.20;99.90;;;;;;5101682;28;20500;-83
2022/09/03 00:40:32;;;;;;;0.60;0.47;;;12.20;99.90;;;;;;5106574;28;20449;-83
2022/09/03 00:43:07;;;;;;;0.63;0.60;;;12.10;99.90;;;;;;5102911;28;20454;-79
2022/09/03 00:45:43;;;;;;;0.63;0.60;;;12.10;99.90;;;;;;5096625;28;21056;-80
2022/09/03 00:48:19;;;;;;;1.23;0.87;;;12.00;99.90;;;;;;5100902;28;21065;-79
2022/09/03 00:51:01;;;;;;;1.57;1.00;;;12.00;99.90;;;;;;5105565;28;20490;-80
2022/09/03 00:53:34;;;;;;;0.50;0.50;;;12.00;99.90;;;;;;5097295;28;20491;-81
2022/09/03 00:56:12;;;;;;;0.70;0.63;;;12.00;99.90;;;;;;5101977;28;20536;-78
2022/09/03 00:59:01;;;;;;;0.90;0.50;;;12.00;99.90;;;;;;5105894;28;20472;-79
2022/09/03 01:01:35;;;;;;;0.77;0.70;;;11.90;99.90;;;;;;5086786;28;20536;-81
2022/09/03 01:04:13;;;;;;;1.40;0.90;;;11.90;99.90;;;;;;5102635;28;20452;-81
2022/09/03 01:06:49;;;;;;;1.37;0.60;;;11.80;99.90;;;;;;5098757;28;20465;-79
2022/09/03 01:09:32;;;;;;;0.67;0.67;;;11.90;99.90;;;;;;5104306;28;20937;-80
2022/09/03 01:12:12;;;;;;;1.10;0.60;;;11.90;99.90;;;;;;5103734;28;20507;-81
2022/09/03 01:14:50;;;;;;;4.20;0.70;;;11.80;99.90;;;;;;5097816;28;21239;-79
2022/09/03 01:17:26;;;;;;;1.00;0.70;;;11.70;99.90;;;;;;5098421;28;20803;-79
2022/09/03 01:20:21;;;;;;;0.70;0.50;;;11.60;99.90;;;;;;5103676;28;20683;-82
2022/09/03 01:23:29;;;;;;;3.63;0.70;;;11.60;99.90;;;;;;5099266;28;20540;-81
2022/09/03 01:26:10;;;;;;;0.53;0.43;;;11.50;99.90;;;;;;5099272;28;20497;-81
2022/09/03 01:28:53;;;;;;;0.70;0.50;;;11.40;99.90;;;;;;5098360;28;20454;-79
2022/09/03 01:31:35;;;;;;;0.73;0.70;;;11.30;99.90;;;;;;5099678;28;20470;-79
2022/09/03 01:34:13;;;;;;;1.13;0.50;;;11.30;99.90;;;;;;5097951;28;20840;-79
2022/09/03 01:36:47;;;;;;;1.67;0.70;;;11.20;99.90;;;;;;5100863;28;21148;-81
2022/09/03 01:39:23;;;;;;;0.60;0.60;;;11.20;99.90;;;;;;5104951;28;20445;-79
2022/09/03 01:42:16;;;;;;;0.60;0.50;;;11.10;99.90;;;;;;5101466;28;20549;-82
2022/09/03 01:45:05;;;;;;;1.37;0.60;;;11.10;99.90;;;;;;5104659;28;20461;-79
2022/09/03 01:47:49;;;;;;;0.90;0.70;;;11.10;99.90;;;;;;5097293;28;20844;-81
2022/09/03 01:50:27;;;;;;;1.90;1.80;;;11.10;99.90;;;;;;5099548;28;20474;-83
2022/09/03 01:52:59;;;;;;;0.50;0.50;;;11.10;99.90;;;;;;5099936;28;20556;-79
2022/09/03 01:55:32;;;;;;;0.50;0.50;;;11.00;99.90;;;;;;5107483;28;20503;-79
2022/09/03 01:58:07;;;;;;;4.43;0.60;;;11.00;99.90;;;;;;5114283;28;20501;-82
2022/09/03 02:00:41;;;;;;;0.77;0.60;;;10.90;99.90;;;;;;5115560;27;20473;-80
2022/09/03 02:03:11;;;;;;;1.50;0.50;;;10.80;99.90;;;;;;5109593;28;20532;-79
2022/09/03 02:05:38;;;;;;;0.60;0.60;;;10.80;99.90;;;;;;5103576;27;20850;-79
2022/09/03 02:08:07;;;;;;;1.27;1.17;;;10.80;99.90;;;;;;5102323;27;21018;-79
2022/09/03 02:10:39;;;;;;;1.10;1.00;;;10.70;99.90;;;;;;5107854;27;20454;-79
2022/09/03 02:13:09;;;;;;;1.43;0.87;;;10.60;99.90;;;;;;5109214;27;20486;-77
2022/09/03 02:15:40;;;;;;;0.73;0.60;;;10.50;99.90;;;;;;5107031;27;20555;-81
2022/09/03 02:18:13;;;;;;;0.70;0.70;;;10.40;99.90;;;;;;5102373;27;22452;-79
2022/09/03 02:20:41;;;;;;;1.97;0.83;;;10.30;99.90;;;;;;5107496;27;20536;-79
2022/09/03 02:23:08;;;;;;;0.60;0.60;;;10.20;99.90;;;;;;5104770;27;20440;-82
2022/09/03 02:25:38;;;;;;;2.40;0.90;;;10.30;99.90;;;;;;5105871;27;20468;-79
2022/09/03 02:28:07;;;;;;;0.70;0.60;;;10.20;99.90;;;;;;5102505;27;20442;-79
2022/09/03 02:30:34;;;;;;;0.70;0.70;;;10.20;99.90;;;;;;5105708;27;20569;-79
2022/09/03 02:33:03;;;;;;;0.97;0.90;;;10.20;99.90;;;;;;5103386;27;20650;-82
2022/09/03 02:35:30;;;;;;;1.57;0.73;;;10.10;99.90;;;;;;5102047;27;20551;-79
2022/09/03 02:37:57;;;;;;;1.70;0.80;;;10.10;99.90;;;;;;5104988;28;20490;-79
2022/09/03 02:40:24;;;;;;;1.70;0.60;;;10.00;99.90;;;;;;5103898;27;20478;-79
2022/09/03 02:42:51;;;;;;;0.73;0.73;;;10.10;99.90;;;;;;5104053;27;20847;-81
2022/09/03 02:45:26;;;;;;;0.80;0.70;;;10.10;99.90;;;;;;5106601;27;20511;-79
2022/09/03 02:47:56;;;;;;;0.63;0.60;;;10.10;99.90;;;;;;5104402;27;20497;-79
2022/09/03 02:50:25;;;;;;;3.40;0.90;;;10.00;99.90;;;;;;5102466;27;20580;-79
2022/09/03 02:52:53;;;;;;;1.03;0.60;;;10.00;99.90;;;;;;5101569;27;20515;-79
2022/09/03 02:55:20;;;;;;;0.83;0.83;;;10.00;99.90;;;;;;5102836;27;20982;-79
2022/09/03 02:57:47;;;;;;;1.00;0.80;;;10.00;99.90;;;;;;5107704;27;20457;-80
2022/09/03 03:00:14;;;;;;;0.90;0.60;;;10.00;99.90;;;;;;5108945;27;21004;-79
2022/09/03 03:02:41;;;;;;;2.93;1.00;;;10.10;99.90;;;;;;5104636;27;20452;-78
2022/09/03 03:05:15;;;;;;;1.20;0.83;;;10.00;99.90;;;;;;5100837;28;20458;-80
2022/09/03 03:07:43;;;;;;;0.60;0.60;;;10.10;99.90;;;;;;5102636;27;20551;-79
2022/09/03 03:10:11;;;;;;;0.87;0.77;;;10.10;99.90;;;;;;5108302;27;21022;-79
2022/09/03 03:12:38;;;;;;;0.80;0.80;;;10.10;99.90;;;;;;5101234;28;21134;-79
2022/09/03 03:15:06;;;;;;;1.40;0.90;;;10.00;99.90;;;;;;5103406;27;20560;-84
2022/09/03 03:17:33;;;;;;;2.20;1.07;;;10.10;99.90;;;;;;5104574;27;20859;-81
2022/09/03 03:20:00;;;;;;;1.23;1.13;;;10.10;99.90;;;;;;5103933;27;20526;-81
2022/09/03 03:22:27;;;;;;;1.13;0.77;;;10.00;99.90;;;;;;5105257;27;20504;-80
2022/09/03 03:24:56;;;;;;;0.90;0.80;;;9.90;99.90;;;;;;5103889;27;20935;-81
2022/09/03 03:27:23;;;;;;;1.80;1.27;;;9.90;99.90;;;;;;5096862;27;20486;-82
2022/09/03 03:29:51;;;;;;;1.27;1.10;;;9.80;99.90;;;;;;5093524;27;20482;-82
2022/09/03 03:32:18;;;;;;;2.57;1.10;;;9.80;99.90;;;;;;5102653;27;20820;-81
2022/09/03 03:34:45;;;;;;;1.23;1.13;;;9.80;99.90;;;;;;5104539;27;20521;-80
2022/09/03 03:37:12;;;;;;;0.80;0.80;;;9.80;99.90;;;;;;5102167;27;20441;-80
2022/09/03 03:39:39;;;;;;;0.97;0.90;;;9.80;99.90;;;;;;5104934;28;20515;-79
2022/09/03 03:42:07;;;;;;;1.33;1.03;;;9.80;99.90;;;;;;5098385;27;20458;-81
2022/09/03 03:44:34;;;;;;;1.27;1.10;;;9.80;99.90;;;;;;5106339;27;20458;-80
2022/09/03 03:47:04;;;;;;;2.20;1.10;;;9.80;99.90;;;;;;5104388;28;20498;-80
2022/09/03 03:49:31;;;;;;;1.27;1.17;;;9.80;99.90;;;;;;5100352;27;20993;-83
2022/09/03 03:51:58;;;;;;;1.47;0.80;;;9.80;99.90;;;;;;5104483;27;20466;-82
2022/09/03 03:54:26;;;;;;;1.57;1.47;;;9.70;99.90;;;;;;5106348;27;20501;-82
2022/09/03 03:56:52;;;;;;;1.20;1.10;;;9.70;99.90;;;;;;5099010;27;20535;-80
2022/09/03 03:59:21;;;;;;;0.90;0.80;;;9.60;99.90;;;;;;5105912;27;20559;-79
2022/09/03 04:01:49;;;;;;;1.10;1.00;;;9.70;99.90;;;;;;5104026;27;20462;-81
2022/09/03 04:04:17;;;;;;;3.00;1.83;;;9.60;99.90;;;;;;5104707;27;20470;-78
2022/09/03 04:06:44;;;;;;;0.97;0.97;;;9.60;99.90;;;;;;5100401;27;20461;-82
2022/09/03 04:09:11;;;;;;;0.97;0.80;;;9.70;99.90;;;;;;5103896;28;20532;-80
2022/09/03 04:11:38;;;;;;;0.80;0.80;;;9.70;99.90;;;;;;5104093;27;20465;-81
2022/09/03 04:14:05;;;;;;;1.00;0.90;;;9.60;99.90;;;;;;5101567;27;20484;-81
2022/09/03 04:16:33;;;;;;;1.07;0.93;;;9.60;99.90;;;;;;5103825;27;21003;-80
2022/09/03 04:19:00;;;;;;;1.03;0.97;;;9.70;99.90;;;;;;5104624;27;20484;-81
2022/09/03 04:21:29;;;;;;;1.40;1.30;;;9.70;99.90;;;;;;5099912;27;20458;-79
2022/09/03 04:23:57;;;;;;;0.70;0.70;;;9.70;99.90;;;;;;5102143;28;21256;-81
2022/09/03 04:26:26;;;;;;;3.17;1.00;;;9.60;99.90;;;;;;5102172;27;20481;-82
2022/09/03 04:28:53;;;;;;;0.60;0.60;;;9.50;99.90;;;;;;5100086;28;21045;-79
2022/09/03 04:31:22;;;;;;;1.73;1.00;;;9.60;99.90;;;;;;5104245;28;20490;-79
2022/09/03 04:33:51;;;;;;;1.20;1.10;;;9.60;99.90;;;;;;5100180;28;20535;-82
2022/09/03 04:36:20;;;;;;;1.30;1.20;;;9.60;99.90;;;;;;5107066;27;20476;-79
2022/09/03 04:38:48;;;;;;;0.70;0.70;;;9.60;99.90;;;;;;5102992;27;20439;-82
2022/09/03 04:41:17;;;;;;;1.60;1.10;;;9.70;99.90;;;;;;5099263;28;20507;-79
2022/09/03 04:43:45;;;;;;;0.90;0.80;;;9.80;99.90;;;;;;5097179;28;20565;-79
2022/09/03 04:46:13;;;;;;;1.63;0.93;;;9.80;99.90;;;;;;5097336;28;20450;-79
2022/09/03 04:48:41;;;;;;;6.00;3.27;;;9.80;99.90;;;;;;5102213;28;20465;-79
2022/09/03 04:51:12;;;;;;;0.90;0.90;;;9.80;99.90;;;;;;5103655;28;20466;-81
2022/09/03 04:53:42;;;;;;;1.90;1.43;;;9.80;99.90;;;;;;5102772;28;20605;-85
2022/09/03 04:56:14;;;;;;;0.80;0.80;;;9.90;99.90;;;;;;5096298;28;21020;-81
2022/09/03 04:58:43;;;;;;;1.37;0.70;;;9.90;99.90;;;;;;5101973;28;21043;-80
2022/09/03 05:01:10;;;;;;;1.23;1.13;;;10.00;99.90;;;;;;5099965;27;20450;-81
2022/09/03 05:03:37;;;;;;;1.10;1.00;;;10.00;99.90;;;;;;5104204;28;20534;-80
2022/09/03 05:06:05;;;;;;;1.10;0.87;;;10.10;99.90;;;;;;5097945;28;20590;-85
2022/09/03 05:08:36;;;;;;;1.23;1.03;;;10.10;99.90;;;;;;5097400;28;20459;-79
2022/09/03 05:11:03;;;;;;;1.77;1.67;;;10.30;99.90;;;;;;5097507;28;20492;-82
2022/09/03 05:13:31;;;;;;;1.97;0.83;;;10.40;99.90;;;;;;5110415;28;20491;-79
2022/09/03 05:16:00;;;;;;;0.97;0.97;;;10.40;99.90;;;;;;5117719;28;20864;-80
2022/09/03 05:18:28;;;;;;;1.60;1.00;;;10.50;99.90;;;;;;5105001;28;20466;-80
2022/09/03 05:21:06;;;;;;;1.07;1.07;;;10.60;99.90;;;;;;5111737;28;20576;-80
2022/09/03 05:23:37;;;;;;;1.43;1.33;;;10.50;99.90;;;;;;5104894;28;20463;-79
2022/09/03 05:26:07;;;;;;;1.90;0.90;;;10.60;99.90;;;;;;5096424;28;20485;-79
2022/09/03 05:28:36;;;;;;;3.33;0.97;;;10.70;99.90;;;;;;5102719;28;20478;-78
2022/09/03 05:31:06;;;;;;;1.60;1.20;;;10.80;99.90;;;;;;5102318;28;20462;-80
2022/09/03 05:33:35;;;;;;;2.90;2.10;;;10.80;99.90;;;;;;5112336;27;20449;-80
2022/09/03 05:36:03;;;;;;;1.83;1.73;;;10.90;99.90;;;;;;5105686;27;20553;-82
2022/09/03 05:38:30;;;;;;;1.40;0.90;;;11.10;99.90;;;;;;5102933;27;20505;-79
2022/09/03 05:41:00;;;;;;;1.73;1.63;;;11.10;99.90;;;;;;5103495;28;20554;-79
2022/09/03 05:43:28;;;;;;;1.00;0.90;;;11.00;99.90;;;;;;5094256;27;20447;-84
2022/09/03 05:45:59;;;;;;;2.27;1.07;;;11.10;99.90;;;;;;5102896;27;20482;-82
2022/09/03 05:48:26;;;;;;;0.97;0.97;;;11.40;99.90;;;;;;5110817;27;20454;-83
2022/09/03 05:51:00;;;;;;;1.47;1.47;;;11.40;99.90;;;;;;5100957;28;20480;-83
2022/09/03 05:53:28;;;;;;;5.50;1.87;;;11.60;99.90;;;;;;5106116;28;20698;-81
2022/09/03 05:55:56;;;;;;;2.03;1.20;;;11.70;99.90;;;;;;5100113;27;20559;-80
2022/09/03 05:58:25;;;;;;;1.50;1.40;;;11.90;99.90;;;;;;5103482;27;20474;-82
2022/09/03 06:00:52;;;;;;;1.20;1.20;;;12.00;99.90;;;;;;5103427;28;20506;-81
2022/09/03 06:03:19;;;;;;;1.60;0.83;;;12.10;99.90;;;;;;5092490;27;20876;-83
2022/09/03 06:05:51;;;;;;;1.10;1.00;;;12.20;99.90;;;;;;5100574;28;20474;-81
2022/09/03 06:08:18;;;;;;;3.10;1.23;;;12.10;99.90;;;;;;5106684;27;20452;-84
2022/09/03 06:10:45;;;;;;;1.20;1.10;;;12.20;99.90;;;;;;5106575;27;20591;-81
2022/09/03 06:13:12;;;;;;;4.70;1.03;;;12.40;99.90;;;;;;5105442;27;20475;-81
2022/09/03 06:15:41;;;;;;;1.10;1.03;;;12.60;99.90;;;;;;5105480;27;21148;-81
2022/09/03 06:18:08;;;;;;;1.83;1.37;;;12.70;99.90;;;;;;5103646;27;20463;-81
2022/09/03 06:20:34;;;;;;;1.97;1.30;;;12.80;99.90;;;;;;5101949;27;21028;-81
2022/09/03 06:23:01;;;;;;;0.90;0.87;;;12.90;99.90;;;;;;5104292;27;21520;-81
2022/09/03 06:25:28;;;;;;;1.10;0.93;;;13.00;99.90;;;;;;5108433;27;20527;-81
2022/09/03 06:27:55;;;;;;;0.97;0.90;;;13.30;99.90;;;;;;5104221;27;21216;-80
2022/09/03 06:30:22;;;;;;;1.63;1.13;;;13.30;99.90;;;;;;5101678;27;20546;-81
2022/09/03 06:32:51;;;;;;;0.80;0.80;;;13.50;99.90;;;;;;5106758;27;20443;-81
2022/09/03 06:35:18;;;;;;;2.00;1.17;;;13.60;99.90;;;;;;5110344;27;20493;-84
2022/09/03 06:37:45;;;;;;;3.20;0.87;;;13.80;99.90;;;;;;5110931;27;20494;-81
2022/09/03 06:40:13;;;;;;;1.33;1.00;;;14.10;99.90;;;;;;5104766;27;20463;-82
2022/09/03 06:42:41;;;;;;;1.60;0.90;;;14.20;99.90;;;;;;5093929;28;20854;-81
2022/09/03 06:45:09;;;;;;;0.80;0.80;;;14.20;99.90;;;;;;5099035;28;20466;-83
2022/09/03 06:47:36;;;;;;;0.83;0.80;;;14.40;99.90;;;;;;5104475;27;20447;-85
2022/09/03 06:50:06;;;;;;;0.90;0.90;;;14.40;99.90;;;;;;5101463;27;20932;-81
2022/09/03 06:52:32;;;;;;;1.43;0.90;;;14.50;99.90;;;;;;5098714;27;20465;-82
2022/09/03 06:55:00;;;;;;;1.47;1.20;;;14.80;99.90;;;;;;5106774;27;20488;-81
2022/09/03 06:57:27;;;;;;;1.90;0.90;;;14.70;99.90;;;;;;5106809;27;21168;-81
2022/09/03 06:59:54;;;;;;;0.93;0.83;;;14.80;99.90;;;;;;5102459;27;20953;-81
2022/09/03 07:02:24;;;;;;;1.23;0.90;;;15.20;99.90;;;;;;5104659;27;20461;-81
2022/09/03 07:04:51;;;;;;;2.70;1.13;;;15.30;99.90;;;;;;5101369;27;20454;-83
2022/09/03 07:07:19;;;;;;;1.07;0.73;;;15.10;99.90;;;;;;5101090;28;21040;-82
2022/09/03 07:09:46;;;;;;;0.97;0.87;;;15.20;99.90;;;;;;5101553;27;20475;-82
2022/09/03 07:12:15;;;;;;;0.97;0.73;;;15.40;99.90;;;;;;5101186;27;20467;-85
2022/09/03 07:14:42;;;;;;;0.90;0.80;;;15.40;99.90;;;;;;5109177;27;20473;-83
2022/09/03 07:17:09;;;;;;;0.80;0.80;;;15.50;99.90;;;;;;5099000;27;20504;-84
2022/09/03 07:19:36;;;;;;;2.93;0.80;;;15.50;99.90;;;;;;5102993;27;20506;-81
2022/09/03 07:22:03;;;;;;;1.00;0.83;;;15.70;99.90;;;;;;5100057;27;20915;-80
2022/09/03 07:24:32;;;;;;;1.10;0.97;;;15.90;99.90;;;;;;5104129;27;20477;-80
2022/09/03 07:26:59;;;;;;;0.90;0.80;;;15.60;99.90;;;;;;5100243;28;20473;-79
2022/09/03 07:29:26;;;;;;;0.93;0.70;;;15.70;99.90;;;;;;5102425;27;20455;-83
2022/09/03 07:31:53;;;;;;;0.80;0.70;;;15.70;99.90;;;;;;5098227;27;20466;-77
2022/09/03 07:34:22;;;;;;;0.60;0.60;;;15.70;99.90;;;;;;5104687;27;20475;-84
2022/09/03 07:36:50;;;;;;;0.90;0.60;;;15.60;99.90;;;;;;5104118;27;20445;-78
2022/09/03 07:39:18;;;;;;;0.90;0.80;;;15.70;99.90;;;;;;5102796;27;20947;-78
2022/09/03 07:41:46;;;;;;;0.63;0.50;;;15.80;99.90;;;;;;5111135;27;20452;-80
2022/09/03 07:44:18;;;;;;;0.70;0.60;;;16.10;99.90;;;;;;5099736;27;20460;-79
2022/09/03 07:46:46;;;;;;;0.83;0.70;;;16.40;99.90;;;;;;5102574;27;21183;-79
2022/09/03 07:49:13;;;;;;;1.00;0.80;;;16.30;99.90;;;;;;5114516;27;20933;-78
2022/09/03 07:51:41;;;;;;;1.57;1.03;;;16.50;99.90;;;;;;5105766;27;20468;-81
2022/09/03 07:54:09;;;;;;;1.27;0.90;;;16.60;99.90;;;;;;5097793;27;21021;-80
2022/09/03 07:56:37;;;;;;;0.60;0.60;;;16.90;99.90;;;;;;5092355;27;20530;-78
2022/09/03 07:59:06;;;;;;;0.80;0.80;;;17.10;99.90;;;;;;5108581;27;20859;-79
2022/09/03 08:01:34;;;;;;;1.30;0.67;;;17.30;99.90;;;;;;5100265;27;20534;-78
2022/09/03 08:04:03;;;;;;;0.70;0.60;;;17.70;99.90;;;;;;5098748;28;20532;-79
2022/09/03 08:06:30;;;;;;;1.03;0.93;;;17.90;99.90;;;;;;5111300;27;20458;-79
2022/09/03 08:08:59;;;;;;;0.80;0.70;;;17.70;99.90;;;;;;5126863;27;20473;-78
2022/09/03 08:11:28;;;;;;;1.10;1.00;;;17.20;99.90;;;;;;5106934;28;21141;-79
2022/09/03 08:14:00;;;;;;;1.10;1.10;;;17.10;99.90;;;;;;5097286;28;20521;-78
2022/09/03 08:16:29;;;;;;;0.80;0.80;;;17.10;99.90;;;;;;5107483;27;21266;-79
2022/09/03 08:18:57;;;;;;;2.23;1.30;;;17.40;99.90;;;;;;5111693;27;20463;-80
2022/09/03 08:21:25;;;;;;;0.80;0.80;;;17.60;99.90;;;;;;5105760;27;20521;-79
2022/09/03 08:23:55;;;;;;;0.70;0.70;;;17.90;99.90;;;;;;5100259;27;20465;-78
2022/09/03 08:26:22;;;;;;;3.17;0.90;;;17.80;99.90;;;;;;5109169;27;20484;-79
2022/09/03 08:28:52;;;;;;;1.00;0.90;;;17.70;99.90;;;;;;5106615;27;20452;-79
2022/09/03 08:31:21;;;;;;;0.90;0.90;;;17.80;99.90;;;;;;5104928;27;20469;-79
2022/09/03 08:33:51;;;;;;;0.80;0.70;;;17.70;99.90;;;;;;5094642;27;20480;-80
2022/09/03 08:36:20;;;;;;;0.80;0.80;;;17.60;99.90;;;;;;5096326;27;20897;-81
2022/09/03 08:38:47;;;;;;;1.10;1.00;;;17.90;99.90;;;;;;5099416;27;20470;-81
2022/09/03 08:41:17;;;;;;;0.80;0.70;;;18.10;99.90;;;;;;5106099;27;20453;-80
2022/09/03 08:44:06;;;;;;;1.57;0.73;;;17.90;99.90;;;;;;5098184;28;20462;-79
2022/09/03 08:46:50;;;;;;;1.40;1.00;;;17.90;99.90;;;;;;5101355;28;20468;-79
2022/09/03 08:49:24;;;;;;;1.20;0.80;;;18.00;99.90;;;;;;5104399;28;20504;-80
2022/09/03 08:51:56;;;;;;;1.00;0.70;;;18.00;99.90;;;;;;5102396;28;20452;-79
2022/09/03 08:54:28;;;;;;;2.10;0.90;;;18.00;99.90;;;;;;5100919;28;20463;-79
2022/09/03 08:56:59;;;;;;;0.70;0.70;;;18.00;99.90;;;;;;5116305;27;20466;-80
2022/09/03 08:59:26;;;;;;;0.70;0.70;;;18.40;99.90;;;;;;5095203;27;20452;-82
2022/09/03 09:01:58;;;;;;;0.90;0.63;;;18.70;99.90;;;;;;5090455;28;21010;-83
2022/09/03 09:04:39;;;;;;;1.17;0.80;;;18.40;99.90;;;;;;5107275;28;20523;-80
2022/09/03 09:07:11;;;;;;;0.73;0.73;;;18.50;99.90;;;;;;5098516;28;20462;-83
2022/09/03 09:09:47;;;;;;;2.57;1.10;;;18.70;99.90;;;;;;5108902;27;21202;-81
2022/09/03 09:12:25;;;;;;;1.00;0.97;;;18.80;99.90;;;;;;5101496;27;20555;-79
2022/09/03 09:15:05;;;;;;;1.23;0.80;;;18.50;99.90;;;;;;5104121;27;20941;-79
2022/09/03 09:17:54;;;;;;;1.20;0.70;;;18.70;99.90;;;;;;5104360;27;20947;-81
2022/09/03 09:20:30;;;;;;;0.80;0.80;;;18.80;99.90;;;;;;5103226;27;21140;-81
2022/09/03 09:23:03;;;;;;;1.13;0.80;;;18.70;99.90;;;;;;5102489;27;20526;-79
2022/09/03 09:25:31;;;;;;;1.13;1.07;;;18.70;99.90;;;;;;5105259;27;20466;-80
2022/09/03 09:28:01;;;;;;;1.17;1.07;;;18.90;99.90;;;;;;5098068;27;20557;-81
2022/09/03 09:30:30;;;;;;;0.70;0.70;;;19.30;99.90;;;;;;5103666;27;20475;-82
2022/09/03 09:32:59;;;;;;;1.00;0.90;;;19.10;99.90;;;;;;5098572;27;20917;-82
2022/09/03 09:35:27;;;;;;;0.90;0.80;;;18.80;99.90;;;;;;5103794;27;20548;-83
2022/09/03 09:37:56;;;;;;;0.80;0.80;;;18.70;99.90;;;;;;5107728;27;21798;-81
2022/09/03 09:40:26;;;;;;;4.30;1.43;;;18.80;99.90;;;;;;5104820;27;20535;-79
2022/09/03 09:43:04;;;;;;;1.10;0.80;;;19.30;99.90;;;;;;5102742;27;20470;-81
2022/09/03 09:45:32;;;;;;;1.97;0.80;;;19.70;99.90;;;;;;5097336;28;20470;-80
2022/09/03 09:48:01;;;;;;;1.17;0.93;;;19.40;99.90;;;;;;5112679;27;20526;-83
2022/09/03 09:50:29;;;;;;;0.97;0.87;;;19.40;99.90;;;;;;5112886;27;20510;-80
2022/09/03 09:53:13;;;;;;;0.90;0.60;;;19.40;99.90;;;;;;5094742;27;20509;-79
2022/09/03 09:55:53;;;;;;;0.97;0.70;;;19.60;99.90;;;;;;5100551;27;20523;-80
2022/09/03 09:58:22;;;;;;;1.27;0.60;;;19.50;99.90;;;;;;5107814;27;20548;-80
2022/09/03 10:01:01;;;;;;;1.10;1.10;;;19.70;99.90;;;;;;5108252;27;20666;-82
2022/09/03 10:03:33;;;;;;;0.63;0.60;;;20.00;99.90;;;;;;5097061;27;20473;-81
2022/09/03 10:09:07;;;;;;;1.17;0.70;;;19.70;99.90;;;;;;5084220;27;21118;-80
2022/09/03 10:11:38;;;;;;;1.00;0.70;;;20.10;99.90;;;;;;5100658;27;20486;-80
2022/09/03 10:14:12;;;;;;;0.70;0.70;;;20.50;99.90;;;;;;5104615;27;20467;-81
2022/09/03 10:16:47;;;;;;;1.73;0.73;;;20.30;99.60;;;;;;5101236;27;20518;-82
2022/09/03 10:19:18;;;;;;;1.93;0.80;;;20.10;98.80;;;;;;5105724;27;20897;-79
2022/09/03 10:21:54;;;;;;;1.87;1.00;;;20.10;99.10;;;;;;5108215;27;20464;-80
2022/09/03 10:24:41;;;;;;;1.00;0.83;;;20.20;99.90;;;;;;5099699;27;20471;-81
2022/09/03 10:27:11;;;;;;;0.80;0.80;;;20.70;98.60;;;;;;5088232;27;21028;-84
2022/09/03 10:29:41;;;;;;;0.93;0.80;;;20.90;99.90;;;;;;5097024;27;20484;-80
2022/09/03 10:32:22;;;;;;;0.80;0.70;;;20.70;99.50;;;;;;5087981;27;20470;-80
2022/09/03 10:35:23;;;;;;;3.57;0.80;;;20.70;99.50;;;;;;5102839;27;20488;-80
2022/09/03 10:37:59;;;;;;;1.60;1.50;;;20.80;99.90;;;;;;5095549;27;20456;-79
2022/09/03 10:40:35;;;;;;;2.43;0.80;;;21.00;99.90;;;;;;5102719;27;20716;-80
2022/09/03 10:43:23;;;;;;;1.30;1.20;;;21.20;99.90;;;;;;5109281;27;20534;-80
2022/09/03 10:46:01;;;;;;;1.10;0.90;;;21.00;99.70;;;;;;5094840;27;20465;-80
2022/09/03 10:48:46;;;;;;;1.80;1.03;;;21.30;98.70;;;;;;5091106;28;20458;-80
2022/09/03 10:51:19;;;;;;;1.33;1.20;;;20.90;99.90;;;;;;5104738;27;21005;-80
2022/09/03 10:54:06;;;;;;;1.30;0.80;;;21.10;99.30;;;;;;5099483;27;20535;-81
2022/09/03 10:56:40;;;;;;;1.20;1.10;;;21.00;99.90;;;;;;5104590;27;20993;-80
2022/09/03 10:59:37;;;;;;;1.23;0.93;;;21.30;98.60;;;;;;5099142;27;20542;-82
2022/09/03 11:02:28;;;;;;;1.43;0.90;;;20.90;98.50;;;;;;5097264;27;20537;-81
2022/09/03 11:05:02;;;;;;;1.77;1.13;;;21.10;99.70;;;;;;5100265;27;20979;-80
2022/09/03 11:07:36;;;;;;;1.27;1.17;;;21.20;99.00;;;;;;5116588;27;20549;-81
2022/09/03 11:10:14;;;;;;;1.00;0.90;;;21.40;99.50;;;;;;5104507;27;20445;-81
2022/09/03 11:12:47;;;;;;;1.63;1.53;;;21.30;99.00;;;;;;5112136;28;20480;-80
2022/09/03 11:15:23;;;;;;;1.50;1.23;;;21.10;98.00;;;;;;5113310;28;20966;-80
2022/09/03 11:17:56;;;;;;;1.37;0.90;;;21.10;98.50;;;;;;5103467;27;20455;-81
2022/09/03 11:20:27;;;;;;;1.00;0.90;;;21.30;97.90;;;;;;5102614;27;20461;-80
2022/09/03 11:22:57;;;;;;;1.00;0.90;;;21.30;98.80;;;;;;5099930;27;21036;-80
2022/09/03 11:25:32;;;;;;;1.60;0.80;;;20.90;98.30;;;;;;5104865;27;20455;-82
2022/09/03 11:28:17;;;;;;;1.73;0.90;;;21.00;99.20;;;;;;5103776;27;20451;-84
2022/09/03 11:30:56;;;;;;;1.00;0.80;;;21.30;99.00;;;;;;5110983;27;20548;-82
2022/09/03 11:33:29;;;;;;;1.10;0.93;;;21.50;98.30;;;;;;5101015;27;20816;-81
2022/09/03 11:35:59;;;;;;;1.10;1.10;;;21.50;99.00;;;;;;5107838;27;21153;-80
2022/09/03 11:38:31;;;;;;;1.10;1.00;;;21.70;98.00;;;;;;5102780;27;21004;-82
2022/09/03 11:41:03;;;;;;;0.83;0.83;;;21.80;99.90;;;;;;5105473;27;20450;-80
2022/09/03 11:43:31;;;;;;;2.83;1.17;;;21.90;97.20;;;;;;5099004;27;21103;-81
2022/09/03 11:46:12;;;;;;;1.30;1.20;;;21.50;98.30;;;;;;5103207;27;20453;-81
2022/09/03 11:48:43;;;;;;;1.43;1.20;;;21.90;99.60;;;;;;5106245;27;20473;-82
2022/09/03 11:51:36;;;;;;;5.63;0.90;;;22.30;98.50;;;;;;5105534;27;20457;-80
2022/09/03 11:54:06;;;;;;;1.03;1.00;;;22.70;96.70;;;;;;5104577;28;20465;-81
2022/09/03 11:56:40;;;;;;;0.70;0.70;;;22.80;97.80;;;;;;5108865;27;21010;-81
2022/09/03 11:59:19;;;;;;;0.93;0.70;;;22.80;97.10;;;;;;5114174;27;20461;-79
2022/09/03 12:01:52;;;;;;;0.80;0.80;;;22.80;96.80;;;;;;5105770;27;20458;-79
2022/09/03 12:04:29;;;;;;;2.13;1.23;;;22.60;98.10;;;;;;5103221;27;21008;-85
2022/09/03 12:07:30;;;;;;;1.33;0.80;;;22.60;97.60;;;;;;5112793;27;20473;-84
2022/09/03 12:10:09;;;;;;;1.20;1.10;;;22.30;97.10;;;;;;5106036;27;20876;-80
2022/09/03 12:12:52;;;;;;;0.90;0.90;;;22.60;98.50;;;;;;5110850;27;20445;-84
2022/09/03 12:15:37;;;;;;;1.53;0.90;;;23.20;97.40;;;;;;5109759;27;20532;-81
2022/09/03 12:18:21;;;;;;;1.07;1.00;;;23.30;97.30;;;;;;5111528;27;20502;-80
2022/09/03 12:21:00;;;;;;;0.93;0.90;;;23.20;94.70;;;;;;5100572;27;20456;-80
2022/09/03 12:23:29;;;;;;;0.77;0.70;;;23.20;95.60;;;;;;5102019;27;20852;-80
2022/09/03 12:26:06;;;;;;;0.90;0.70;;;23.10;95.60;;;;;;5099643;27;20477;-78
2022/09/03 12:28:40;;;;;;;1.50;0.90;;;22.50;95.00;;;;;;5098928;27;20466;-81
2022/09/03 12:31:20;;;;;;;2.30;0.97;;;22.40;96.70;;;;;;5104824;27;20879;-77
2022/09/03 12:33:48;;;;;;;0.70;0.70;;;22.60;97.00;;;;;;5111359;27;20450;-79
2022/09/03 12:36:15;;;;;;;0.70;0.70;;;22.90;96.40;;;;;;5118225;27;20564;-78
2022/09/03 12:38:43;;;;;;;1.07;0.97;;;23.50;96.80;;;;;;5101150;27;20458;-78
2022/09/03 12:41:21;;;;;;;0.80;0.80;;;24.30;94.00;;;;;;5099877;27;20468;-78
2022/09/03 12:43:53;;;;;;;2.97;1.00;;;24.60;94.90;;;;;;5092822;27;20451;-83
2022/09/03 12:46:24;;;;;;;0.93;0.90;;;25.10;94.00;;;;;;5108638;27;20505;-80
2022/09/03 12:49:02;;;;;;;1.17;0.70;;;24.90;93.80;;;;;;5107253;28;20449;-79
2022/09/03 12:51:33;;;;;;;1.20;1.10;;;24.70;94.10;;;;;;5106737;27;20468;-78
2022/09/03 12:54:02;;;;;;;0.80;0.80;;;25.00;92.80;;;;;;5103790;28;20470;-80
2022/09/03 12:56:31;;;;;;;1.00;1.00;;;24.80;92.30;;;;;;5099731;28;20914;-79
2022/09/03 12:59:04;;;;;;;1.10;1.00;;;24.10;93.00;;;;;;5102162;28;20445;-79
2022/09/03 13:01:34;;;;;;;0.60;0.60;;;24.20;94.20;;;;;;5087362;28;21031;-82
2022/09/03 13:04:06;;;;;;;1.33;0.90;;;24.20;93.60;;;;;;5100956;28;20508;-79
2022/09/03 13:06:44;;;;;;;0.90;0.70;;;23.70;94.00;;;;;;5105519;28;20517;-82
2022/09/03 13:09:11;;;;;;;1.33;0.77;;;23.30;94.40;;;;;;5096186;28;20450;-81
2022/09/03 13:11:38;;;;;;;1.50;0.67;;;23.10;95.30;;;;;;5097547;28;20463;-79
2022/09/03 13:14:09;;;;;;;1.00;0.80;;;23.50;94.80;;;;;;5100780;28;20466;-80
2022/09/03 13:17:14;;;;;;;0.83;0.83;;;23.80;95.50;;;;;;5106758;28;20603;-79